This is the latest recevied weather packets stored in our database for station/object DB0RSR-12. If no packets are shown the sender has not sent any weather packets the latest 10 day(s).
| Time | Temp. | Humidity | Pressure | Rain* | Wind** | Luminosity | Snow |
|---|---|---|---|---|---|---|---|
| 1777470039 | 25° C | 18% | 1014 hPa | - | - | - | - |
| 1777469139 | 25.56° C | 18% | 1014 hPa | - | - | - | - |
| 1777468239 | 25° C | 18% | 1014 hPa | - | - | - | - |
| 1777467339 | 25.56° C | 18% | 1014 hPa | - | - | - | - |
| 1777466439 | 25° C | 19% | 1014 hPa | - | - | - | - |
| 1777465539 | 25° C | 19% | 1014 hPa | - | - | - | - |
| 1777464639 | 24.44° C | 19% | 1014 hPa | - | - | - | - |
| 1777463739 | 25.56° C | 18% | 1014 hPa | - | - | - | - |
| 1777462838 | 25° C | 18% | 1015 hPa | - | - | - | - |
| 1777461938 | 23.33° C | 22% | 1015 hPa | - | - | - | - |
| 1777461038 | 23.89° C | 19% | 1015 hPa | - | - | - | - |
| 1777460138 | 23.33° C | 21% | 1015 hPa | - | - | - | - |
| 1777459238 | 22.78° C | 21% | 1015 hPa | - | - | - | - |
| 1777458338 | 22.22° C | 21% | 1015 hPa | - | - | - | - |
| 1777457438 | 22.78° C | 19% | 1015 hPa | - | - | - | - |
| 1777456538 | 21.11° C | 22% | 1015 hPa | - | - | - | - |
| 1777455638 | 21.11° C | 22% | 1015 hPa | - | - | - | - |
| 1777454738 | 19.44° C | 25% | 1015 hPa | - | - | - | - |
| 1777453838 | 18.89° C | 26% | 1015 hPa | - | - | - | - |
| 1777452938 | 17.78° C | 27% | 1015 hPa | - | - | - | - |
| 1777452038 | 16.67° C | 28% | 1015 hPa | - | - | - | - |
| 1777451138 | 16.11° C | 27% | 1015 hPa | - | - | - | - |
| 1777450238 | 15° C | 29% | 1015 hPa | - | - | - | - |
| 1777449338 | 14.44° C | 30% | 1014 hPa | - | - | - | - |
| 1777448438 | 13.33° C | 32% | 1014 hPa | - | - | - | - |
* Rain since midnight (hover to see other rain measurements)
** Current wind speed in m/s (hover to see current wind gust speed)